Broken Hill Patton Street, Australia
Current Conditions -  °F | °C
As of 7:00 PM on Saturday 20 Dec 2014 (Local Time) from YBHI Reporting Station
Clear Clear  
Wind Chill: 86°   Ceiling: Unl
Heat Index: 86°   Visibility: 6mi
Dew Point: 32°   Wind: 10mph
Humidity: 14%   Direction: 130°SE
Pressure: 29.94"   Gusts: NA
Location:  31.98°S, 141.47°E
Report Text: YBHI 200900Z AUTO 13009KT 9999 // NCD 30/00 Q1014
Loading
Personal Weather Stations






























Interactive Weather Map New forecast layout! Learn more

10-Day Weather Forecast

Advertisements
Track Severe Weather on mobile